createdAt,value
2019-04-20T00:02:08.249Z,9.20
2019-04-20T00:04:33.686Z,8.87
2019-04-20T00:07:01.824Z,9.73
2019-04-20T00:09:36.502Z,8.77
2019-04-20T00:12:10.849Z,9.80
2019-04-20T00:14:36.280Z,9.03
2019-04-20T00:17:05.390Z,9.53
2019-04-20T00:19:40.778Z,8.47
2019-04-20T00:22:15.245Z,9.43
2019-04-20T00:25:08.989Z,9.07
2019-04-20T00:27:55.637Z,10.00
2019-04-20T00:30:32.458Z,8.73
2019-04-20T00:32:53.335Z,9.33
2019-04-20T00:35:10.445Z,9.30
2019-04-20T00:37:40.254Z,8.87
2019-04-20T00:40:09.927Z,9.90
2019-04-20T00:42:45.762Z,9.33
2019-04-20T00:45:19.124Z,10.10
2019-04-20T00:47:52.576Z,10.53
2019-04-20T00:50:29.844Z,8.33
2019-04-20T00:53:02.161Z,9.10
2019-04-20T00:55:17.075Z,9.80
2019-04-20T00:57:51.901Z,9.60
2019-04-20T01:00:36.863Z,9.63
2019-04-20T01:03:07.934Z,8.30
2019-04-20T01:06:02.273Z,9.30
2019-04-20T01:08:40.116Z,9.70
2019-04-20T01:11:10.232Z,8.93
2019-04-20T01:13:45.923Z,9.40
2019-04-20T01:16:21.366Z,9.03
2019-04-20T01:18:43.758Z,9.53
2019-04-20T01:21:18.031Z,8.27
2019-04-20T01:23:50.691Z,8.50
2019-04-20T01:26:18.909Z,8.70
2019-04-20T01:28:59.135Z,9.00
2019-04-20T01:31:27.256Z,10.07
2019-04-20T01:33:58.787Z,9.33
2019-04-20T01:36:36.923Z,9.47
2019-04-20T01:39:02.704Z,10.27
2019-04-20T01:41:22.900Z,9.87
2019-04-20T01:43:52.377Z,9.60
2019-04-20T01:46:24.000Z,10.33
2019-04-20T01:48:53.293Z,9.83
2019-04-20T01:51:29.809Z,10.17
2019-04-20T01:54:18.840Z,10.33
2019-04-20T01:56:43.648Z,11.07
2019-04-20T01:59:22.999Z,10.67
2019-04-20T02:02:11.655Z,11.33
2019-04-20T02:04:52.561Z,9.93
2019-04-20T02:07:30.563Z,11.50
2019-04-20T02:09:58.547Z,14.23
2019-04-20T02:12:27.492Z,10.47
2019-04-20T02:15:00.278Z,11.23
2019-04-20T02:17:31.899Z,9.90
2019-04-20T02:20:18.364Z,10.57
2019-04-20T02:22:43.299Z,11.90
2019-04-20T02:24:59.591Z,11.73
2019-04-20T02:27:36.792Z,11.93
2019-04-20T02:30:32.580Z,12.50
2019-04-20T02:33:18.393Z,11.17
2019-04-20T02:36:25.083Z,12.37
2019-04-20T02:39:05.561Z,13.30
2019-04-20T02:41:39.749Z,10.10
2019-04-20T02:44:04.075Z,12.60
2019-04-20T02:46:14.920Z,10.20
2019-04-20T02:48:53.922Z,12.63
2019-04-20T02:51:23.356Z,10.90
2019-04-20T02:54:06.342Z,10.80
2019-04-20T02:56:29.622Z,11.73
2019-04-20T02:59:02.043Z,13.27
2019-04-20T03:01:43.477Z,10.57
2019-04-20T03:03:55.905Z,11.80
2019-04-20T03:06:33.056Z,10.50
2019-04-20T03:09:17.404Z,13.37
2019-04-20T03:11:56.740Z,11.77
2019-04-20T03:14:13.721Z,18.37
2019-04-20T03:16:43.678Z,11.00
2019-04-20T03:19:18.732Z,12.53
2019-04-20T03:21:51.364Z,10.37
2019-04-20T03:24:28.156Z,12.63
2019-04-20T03:27:19.543Z,11.20
2019-04-20T03:31:09.840Z,11.63
2019-04-20T03:33:12.589Z,11.13
2019-04-20T03:35:52.799Z,12.23
2019-04-20T03:38:00.110Z,19.10
2019-04-20T03:40:24.510Z,12.83
2019-04-20T03:42:42.899Z,11.83
2019-04-20T03:45:17.783Z,10.87
2019-04-20T03:47:58.725Z,11.10
2019-04-20T03:50:45.417Z,12.13
2019-04-20T03:53:14.194Z,11.80
2019-04-20T03:56:09.978Z,14.07
2019-04-20T03:58:55.215Z,12.37
2019-04-20T04:02:04.618Z,13.73
2019-04-20T04:04:21.471Z,12.17
2019-04-20T04:06:41.677Z,11.80
2019-04-20T04:09:13.622Z,12.87
2019-04-20T04:11:48.992Z,13.40
2019-04-20T04:14:04.896Z,11.60
2019-04-20T04:16:42.205Z,11.77
2019-04-20T04:19:13.032Z,11.90
2019-04-20T04:21:53.898Z,12.23
2019-04-20T04:24:22.937Z,13.47
2019-04-20T04:26:56.019Z,13.37
2019-04-20T04:29:30.389Z,14.80
2019-04-20T04:32:10.540Z,15.00
2019-04-20T04:34:35.100Z,13.60
2019-04-20T04:37:03.495Z,14.03
2019-04-20T04:39:36.931Z,12.97
2019-04-20T04:42:10.326Z,12.27
2019-04-20T04:44:30.215Z,11.53
2019-04-20T04:46:56.064Z,11.50
2019-04-20T04:49:28.452Z,11.43
2019-04-20T04:51:59.187Z,11.17
2019-04-20T04:54:34.028Z,12.63
2019-04-20T04:56:54.590Z,13.17
2019-04-20T04:59:25.677Z,13.13
2019-04-20T05:01:57.077Z,16.50
2019-04-20T05:05:05.570Z,15.37
2019-04-20T05:07:40.069Z,17.83
2019-04-20T05:09:59.115Z,16.07
2019-04-20T05:12:31.701Z,17.37
2019-04-20T05:15:07.938Z,16.53
2019-04-20T05:17:53.180Z,17.97
2019-04-20T05:20:25.383Z,18.03
2019-04-20T05:22:58.763Z,17.53
2019-04-20T05:25:52.294Z,17.07
2019-04-20T05:28:16.851Z,17.43
2019-04-20T05:30:44.185Z,17.13
2019-04-20T05:33:11.734Z,18.27
2019-04-20T05:36:03.101Z,17.10
2019-04-20T05:38:37.134Z,18.03
2019-04-20T05:41:01.898Z,18.27
2019-04-20T05:43:38.634Z,16.27
2019-04-20T05:46:03.285Z,16.10
2019-04-20T05:48:44.217Z,15.47
2019-04-20T05:51:12.777Z,15.77
2019-04-20T05:53:48.854Z,15.13
2019-04-20T05:56:08.866Z,13.87
2019-04-20T05:58:46.409Z,12.20
2019-04-20T06:01:20.159Z,12.17
2019-04-20T06:03:44.690Z,12.60
2019-04-20T06:06:15.198Z,11.63
2019-04-20T06:08:53.885Z,11.33
2019-04-20T06:11:23.463Z,11.53
2019-04-20T06:14:02.392Z,10.13
2019-04-20T06:16:54.069Z,10.53
2019-04-20T06:19:26.300Z,9.70
2019-04-20T06:22:03.508Z,10.03
2019-04-20T06:24:42.126Z,10.30
2019-04-20T06:27:04.968Z,9.57
2019-04-20T06:29:37.153Z,9.47
2019-04-20T06:32:17.474Z,10.80
2019-04-20T06:34:53.480Z,10.40
2019-04-20T06:37:05.745Z,10.50
2019-04-20T06:39:44.667Z,10.53
2019-04-20T06:42:15.174Z,10.50
2019-04-20T06:45:02.220Z,10.10
2019-04-20T06:47:15.807Z,8.90
2019-04-20T06:50:03.099Z,8.43
2019-04-20T06:52:27.676Z,8.40
2019-04-20T06:55:09.814Z,8.77
2019-04-20T06:57:45.343Z,9.00
2019-04-20T07:00:18.077Z,9.13
2019-04-20T07:02:59.118Z,7.50
2019-04-20T07:05:22.521Z,8.00
2019-04-20T07:07:54.862Z,8.70
2019-04-20T07:10:37.701Z,8.73
2019-04-20T07:12:52.954Z,8.37
2019-04-20T07:15:27.051Z,8.40
2019-04-20T07:26:04.906Z,9.17
2019-04-20T07:28:32.557Z,8.67
2019-04-20T07:31:01.915Z,8.20
2019-04-20T07:33:32.228Z,8.83
2019-04-20T07:36:05.805Z,9.53
2019-04-20T07:38:41.780Z,8.70
2019-04-20T07:41:08.272Z,8.87
2019-04-20T07:43:51.549Z,8.00
2019-04-20T07:46:10.291Z,8.10
2019-04-20T07:48:36.915Z,7.87
2019-04-20T07:51:02.654Z,7.87
2019-04-20T07:53:36.649Z,8.00
2019-04-20T07:56:13.069Z,8.20
2019-04-20T07:58:33.927Z,8.13
2019-04-20T08:01:45.247Z,8.30
2019-04-20T08:04:14.571Z,7.37
2019-04-20T08:06:32.015Z,8.10
2019-04-20T08:09:08.432Z,7.93
2019-04-20T08:11:48.776Z,8.20
2019-04-20T08:14:27.215Z,7.53
2019-04-20T08:16:58.641Z,7.50
2019-04-20T08:19:17.447Z,7.70
2019-04-20T08:21:52.938Z,7.57
2019-04-20T08:24:17.720Z,7.57
2019-04-20T08:26:41.507Z,7.80
2019-04-20T08:29:27.374Z,7.83
2019-04-20T08:32:17.868Z,7.83
2019-04-20T08:34:53.761Z,7.63
2019-04-20T08:37:20.730Z,8.07
2019-04-20T08:42:21.780Z,7.77
2019-04-20T08:47:37.923Z,7.77
2019-04-20T08:50:16.214Z,8.23
2019-04-20T08:53:07.249Z,7.73
2019-04-20T08:55:12.474Z,7.57
2019-04-20T08:57:27.045Z,7.70
2019-04-20T09:00:00.522Z,7.43
2019-04-20T09:02:28.363Z,7.53
2019-04-20T09:05:03.396Z,8.50
2019-04-20T09:07:33.242Z,8.63
2019-04-20T09:10:32.434Z,8.70
2019-04-20T09:12:48.476Z,7.60
2019-04-20T09:15:05.962Z,8.53
2019-04-20T09:18:03.771Z,8.17
2019-04-20T09:20:43.513Z,8.67
2019-04-20T09:23:21.323Z,7.90
2019-04-20T09:26:01.861Z,8.30
2019-04-20T09:28:31.897Z,8.35
2019-04-20T09:31:18.059Z,8.90
2019-04-20T09:34:06.503Z,8.40
2019-04-20T09:36:39.444Z,8.63
2019-04-20T09:40:00.896Z,7.70
2019-04-20T09:42:28.470Z,8.70
2019-04-20T09:45:02.419Z,7.62
2019-04-20T09:47:37.044Z,7.85
2019-04-20T09:50:18.821Z,7.70
2019-04-20T09:52:49.039Z,7.85
2019-04-20T09:55:14.329Z,7.90
2019-04-20T09:57:54.410Z,8.30
2019-04-20T10:00:26.366Z,8.03
2019-04-20T10:02:39.223Z,7.95
2019-04-20T10:05:09.447Z,8.48
2019-04-20T10:07:40.531Z,8.63
2019-04-20T10:10:21.426Z,9.40
2019-04-20T10:12:41.878Z,8.55
2019-04-20T10:15:17.759Z,8.55
2019-04-20T10:17:43.687Z,8.58
2019-04-20T10:20:22.275Z,8.23
2019-04-20T10:22:46.698Z,8.35
2019-04-20T10:25:16.524Z,8.58
2019-04-20T10:27:47.409Z,8.63
2019-04-20T10:30:17.069Z,8.43
2019-04-20T10:32:50.471Z,8.08
2019-04-20T10:35:18.836Z,8.50
2019-04-20T10:37:59.738Z,8.58
2019-04-20T10:40:41.500Z,7.80
2019-04-20T10:43:01.543Z,8.15
2019-04-20T10:45:32.944Z,9.23
2019-04-20T10:48:03.415Z,8.28
2019-04-20T10:50:33.064Z,8.35
2019-04-20T10:53:03.629Z,9.03
2019-04-20T10:55:33.619Z,8.50
2019-04-20T10:58:03.779Z,8.45
2019-04-20T11:00:44.050Z,8.63
2019-04-20T11:03:15.777Z,9.33
2019-04-20T11:05:46.782Z,9.30
2019-04-20T11:08:16.843Z,9.35
2019-04-20T11:10:58.983Z,8.38
2019-04-20T11:13:17.639Z,8.50
2019-04-20T11:15:48.354Z,7.95
2019-04-20T11:18:17.929Z,8.68
2019-04-20T11:20:47.285Z,7.70
2019-04-20T11:23:18.142Z,7.95
2019-04-20T11:25:48.330Z,7.70
2019-04-20T11:28:18.089Z,7.45
2019-04-20T11:30:48.408Z,7.85
2019-04-20T11:33:18.217Z,7.90
2019-04-20T11:35:48.540Z,7.22
2019-04-20T11:38:19.704Z,7.30
2019-04-20T11:41:02.755Z,7.05
2019-04-20T11:43:21.850Z,6.90
2019-04-20T11:45:51.256Z,7.35
2019-04-20T11:48:21.326Z,7.35
2019-04-20T11:50:51.680Z,7.20
2019-04-20T11:53:21.573Z,6.22
2019-04-20T11:55:52.128Z,7.30
2019-04-20T11:58:21.823Z,7.03
2019-04-20T12:01:01.482Z,6.92
2019-04-20T12:03:32.903Z,7.35
2019-04-20T12:05:59.786Z,7.65
2019-04-20T12:08:29.253Z,7.17
2019-04-20T12:11:03.070Z,7.70
2019-04-20T12:13:30.997Z,7.87
2019-04-20T12:16:01.530Z,8.45
2019-04-20T12:18:31.746Z,8.00
2019-04-20T12:21:03.009Z,8.00
2019-04-20T12:23:34.021Z,7.50
2019-04-20T12:26:04.780Z,8.08
2019-04-20T12:28:35.807Z,8.00
2019-04-20T12:31:11.931Z,7.70
2019-04-20T12:33:36.812Z,7.72
2019-04-20T12:36:10.126Z,7.70
2019-04-20T12:38:41.208Z,7.17
2019-04-20T12:41:12.727Z,8.48
2019-04-20T12:43:43.607Z,7.85
2019-04-20T12:46:16.622Z,7.30
2019-04-20T12:48:44.605Z,7.30
2019-04-20T12:51:15.480Z,7.62
2019-04-20T12:53:46.625Z,7.45
2019-04-20T12:56:16.930Z,8.25
2019-04-20T12:58:47.397Z,7.50
2019-04-20T13:01:20.209Z,7.65
2019-04-20T13:03:49.724Z,7.70
2019-04-20T13:06:19.650Z,8.65
2019-04-20T13:08:53.771Z,7.85
2019-04-20T13:11:26.681Z,8.23
2019-04-20T13:14:30.595Z,8.25
2019-04-20T13:17:02.001Z,7.40
2019-04-20T13:19:33.191Z,8.05
2019-04-20T13:22:03.229Z,8.53
2019-04-20T13:24:32.688Z,7.72
2019-04-20T13:27:02.954Z,8.18
2019-04-20T13:29:33.130Z,7.65
2019-04-20T13:32:02.775Z,7.78
2019-04-20T13:34:32.304Z,8.78
2019-04-20T13:37:02.267Z,8.25
2019-04-20T13:39:33.055Z,8.18
2019-04-20T13:42:10.545Z,9.05
2019-04-20T13:44:34.919Z,8.18
2019-04-20T13:47:05.132Z,10.03
2019-04-20T13:49:36.718Z,9.03
2019-04-20T13:52:06.749Z,9.28
2019-04-20T13:54:37.902Z,9.63
2019-04-20T13:57:08.432Z,9.23
2019-04-20T13:59:42.006Z,8.05
2019-04-20T14:02:17.888Z,7.80
2019-04-20T14:04:52.702Z,7.35
2019-04-20T14:07:23.837Z,7.58
2019-04-20T14:09:53.651Z,7.80
2019-04-20T14:12:30.701Z,7.60
2019-04-20T14:14:55.267Z,7.65
2019-04-20T14:17:25.383Z,7.30
2019-04-20T14:19:57.128Z,7.33
2019-04-20T14:22:27.214Z,7.72
2019-04-20T14:24:57.327Z,7.50
2019-04-20T14:27:26.883Z,7.45
2019-04-20T14:29:57.105Z,7.08
2019-04-20T14:32:27.137Z,7.75
2019-04-20T14:34:56.853Z,8.20
2019-04-20T14:37:26.772Z,7.83
2019-04-20T14:39:56.507Z,8.00
2019-04-20T14:42:35.574Z,7.97
2019-04-20T14:44:57.587Z,8.45
2019-04-20T14:47:27.874Z,8.23
2019-04-20T14:49:59.694Z,8.43
2019-04-20T14:52:29.358Z,7.28
2019-04-20T14:54:59.530Z,8.35
2019-04-20T14:57:29.860Z,7.87
2019-04-20T15:00:03.651Z,8.43
2019-04-20T15:02:34.233Z,8.03
2019-04-20T15:05:05.324Z,7.67
2019-04-20T15:07:36.326Z,7.80
2019-04-20T15:10:06.906Z,8.28
2019-04-20T15:12:47.394Z,8.35
2019-04-20T15:15:08.464Z,7.75
2019-04-20T15:17:51.510Z,8.15
2019-04-20T15:20:37.768Z,8.18
2019-04-20T15:23:17.422Z,8.28
2019-04-20T15:25:48.628Z,8.75
2019-04-20T15:28:18.635Z,8.65
2019-04-20T15:30:49.901Z,8.28
2019-04-20T15:33:20.954Z,8.55
2019-04-20T15:35:52.394Z,8.35
2019-04-20T15:38:23.024Z,9.38
2019-04-20T15:40:53.305Z,8.33
2019-04-20T15:43:26.559Z,8.75
2019-04-20T15:45:55.094Z,8.03
2019-04-20T15:48:25.964Z,8.28
2019-04-20T15:50:56.234Z,8.68
2019-04-20T15:53:26.816Z,8.25
2019-04-20T15:55:57.493Z,8.53
2019-04-20T15:58:28.217Z,8.15
2019-04-20T16:00:58.828Z,7.58
2019-04-20T16:03:41.276Z,7.97
2019-04-20T16:06:11.486Z,8.28
2019-04-20T16:08:43.985Z,8.00
2019-04-20T16:11:13.485Z,7.87
2019-04-20T16:13:47.322Z,8.50
2019-04-20T16:16:14.271Z,8.98
2019-04-20T16:18:45.275Z,8.55
2019-04-20T16:21:21.912Z,8.80
2019-04-20T16:24:15.139Z,8.88
2019-04-20T16:27:05.291Z,8.08
2019-04-20T16:29:35.611Z,8.30
2019-04-20T16:32:05.181Z,8.30
2019-04-20T16:34:36.792Z,8.08
2019-04-20T16:37:06.629Z,8.98
2019-04-20T16:39:36.605Z,8.85
2019-04-20T16:42:06.592Z,9.18
2019-04-20T16:44:36.099Z,9.50
2019-04-20T16:47:06.168Z,9.95
2019-04-20T16:49:37.049Z,16.00
2019-04-20T16:52:07.391Z,9.05
2019-04-20T16:54:37.659Z,8.48
2019-04-20T16:57:10.631Z,9.25
2019-04-20T16:59:43.942Z,9.35
2019-04-20T17:02:10.071Z,9.40
2019-04-20T17:04:40.805Z,8.80
2019-04-20T17:07:48.891Z,8.97
2019-04-20T17:10:22.149Z,8.77
2019-04-20T17:12:53.560Z,9.77
2019-04-20T17:15:23.720Z,8.83
2019-04-20T17:17:55.371Z,9.10
2019-04-20T17:20:25.730Z,8.93
2019-04-20T17:22:56.259Z,9.07
2019-04-20T17:25:26.015Z,9.17
2019-04-20T17:28:13.110Z,8.83
2019-04-20T17:31:04.897Z,9.20
2019-04-20T17:33:55.129Z,9.40
2019-04-20T17:36:19.001Z,8.93
2019-04-20T17:38:48.520Z,9.43
2019-04-20T17:41:38.555Z,8.93
2019-04-20T17:44:07.262Z,9.67
2019-04-20T17:46:28.629Z,9.07
2019-04-20T17:49:03.242Z,9.30
2019-04-20T17:51:40.047Z,8.70
2019-04-20T17:54:20.097Z,9.00
2019-04-20T17:56:49.536Z,8.53
2019-04-20T17:59:20.177Z,9.03
2019-04-20T18:02:39.326Z,8.60
2019-04-20T18:05:25.566Z,8.70
2019-04-20T18:07:52.468Z,9.63
2019-04-20T18:10:22.876Z,8.83
2019-04-20T18:12:42.333Z,9.13
2019-04-20T18:15:29.554Z,9.13
2019-04-20T18:18:13.673Z,9.17
2019-04-20T18:20:30.724Z,9.87
2019-04-20T18:23:25.528Z,9.30
2019-04-20T18:26:15.893Z,9.93
2019-04-20T18:28:45.525Z,10.93
2019-04-20T18:31:07.210Z,12.70
2019-04-20T18:33:38.365Z,11.90
2019-04-20T18:36:08.136Z,12.73
2019-04-20T18:38:46.762Z,12.40
2019-04-20T18:41:23.150Z,10.67
2019-04-20T18:43:44.798Z,11.80
2019-04-20T18:46:26.016Z,11.27
2019-04-20T18:49:01.350Z,11.03
2019-04-20T18:51:15.507Z,10.27
2019-04-20T18:53:48.203Z,11.17
2019-04-20T18:56:23.785Z,10.13
2019-04-20T18:58:49.180Z,11.77
2019-04-20T19:01:19.251Z,10.50
2019-04-20T19:03:49.441Z,9.60
2019-04-20T19:06:21.240Z,10.03
2019-04-20T19:08:53.373Z,10.87
2019-04-20T19:11:24.122Z,9.50
2019-04-20T19:14:31.538Z,10.07
2019-04-20T19:17:06.771Z,10.57
2019-04-20T19:19:50.975Z,10.97
2019-04-20T19:22:17.525Z,11.73
2019-04-20T19:24:47.680Z,11.40
2019-04-20T19:27:18.960Z,10.93
2019-04-20T19:29:56.441Z,11.67
2019-04-20T19:32:36.887Z,11.13
2019-04-20T19:35:02.917Z,11.50
2019-04-20T19:37:29.146Z,11.33
2019-04-20T19:40:04.539Z,10.90
2019-04-20T19:42:39.683Z,10.57
2019-04-20T19:45:25.240Z,11.23
2019-04-20T19:47:42.878Z,10.87
2019-04-20T19:50:25.196Z,10.50
2019-04-20T19:53:00.131Z,10.57
2019-04-20T19:55:14.407Z,10.30
2019-04-20T19:57:51.266Z,10.47
2019-04-20T20:00:04.483Z,10.70
2019-04-20T20:02:35.918Z,10.80
2019-04-20T20:05:10.265Z,10.00
2019-04-20T20:07:42.626Z,11.17
2019-04-20T20:10:11.007Z,10.97
2019-04-20T20:12:47.955Z,10.63
2019-04-20T20:15:16.945Z,10.83
2019-04-20T20:18:03.644Z,10.53
2019-04-20T20:20:35.601Z,11.03
2019-04-20T20:22:50.340Z,10.60
2019-04-20T20:25:17.081Z,10.20
2019-04-20T20:27:50.333Z,11.47
2019-04-20T20:30:25.474Z,10.97
2019-04-20T20:33:08.760Z,10.63
2019-04-20T20:35:29.095Z,10.83
2019-04-20T20:37:57.887Z,10.73
2019-04-20T20:40:32.737Z,10.40
2019-04-20T20:43:09.639Z,10.47
2019-04-20T20:45:33.700Z,10.77
2019-04-20T20:48:15.512Z,9.90
2019-04-20T20:50:50.205Z,9.70
2019-04-20T20:53:15.579Z,10.80
2019-04-20T20:55:42.290Z,10.27
2019-04-20T20:58:11.477Z,11.13
2019-04-20T21:00:48.463Z,10.40
2019-04-20T21:03:16.714Z,11.10
2019-04-20T21:05:40.045Z,11.07
2019-04-20T21:08:09.463Z,10.33
2019-04-20T21:10:42.380Z,10.43
2019-04-20T21:13:10.899Z,10.37
2019-04-20T21:15:45.455Z,9.80
2019-04-20T21:18:33.545Z,9.87
2019-04-20T21:21:00.141Z,10.93
2019-04-20T21:23:28.718Z,10.53
2019-04-20T21:26:04.302Z,9.70
2019-04-20T21:28:36.068Z,10.20
2019-04-20T21:31:12.567Z,9.37
2019-04-20T21:33:39.686Z,9.17
2019-04-20T21:36:09.096Z,9.50
2019-04-20T21:38:41.435Z,9.60
2019-04-20T21:41:15.023Z,9.03
2019-04-20T21:43:44.453Z,10.00
2019-04-20T21:46:14.003Z,10.33
2019-04-20T21:48:57.158Z,9.30
2019-04-20T21:51:29.319Z,9.73
2019-04-20T21:53:46.245Z,9.03
2019-04-20T21:56:16.043Z,8.60
2019-04-20T21:58:50.455Z,9.33
2019-04-20T22:01:29.788Z,9.70
2019-04-20T22:03:50.298Z,10.40
2019-04-20T22:06:20.275Z,9.23
2019-04-20T22:08:56.688Z,9.17
2019-04-20T22:11:21.949Z,10.17
2019-04-20T22:13:52.921Z,9.47
2019-04-20T22:16:25.547Z,9.50
2019-04-20T22:19:09.131Z,10.33
2019-04-20T22:21:35.503Z,9.00
2019-04-20T22:24:09.427Z,9.53
2019-04-20T22:26:34.195Z,9.90
2019-04-20T22:29:00.435Z,9.47
2019-04-20T22:31:30.310Z,9.70
2019-04-20T22:34:00.728Z,10.33
2019-04-20T22:36:36.909Z,10.73
2019-04-20T22:39:11.860Z,10.40
2019-04-20T22:41:52.120Z,10.23
2019-04-20T22:44:20.421Z,11.07
2019-04-20T22:46:47.674Z,10.60
2019-04-20T22:49:33.716Z,10.10
2019-04-20T22:51:58.117Z,10.30
2019-04-20T22:54:37.955Z,11.00
2019-04-20T22:57:03.810Z,10.07
2019-04-20T22:59:37.406Z,9.50
2019-04-20T23:01:59.973Z,10.50
2019-04-20T23:04:26.692Z,11.43
2019-04-20T23:06:57.278Z,10.17
2019-04-20T23:09:28.728Z,10.57
2019-04-20T23:12:06.050Z,10.33
2019-04-20T23:14:30.192Z,10.00
2019-04-20T23:16:59.797Z,11.40
2019-04-20T23:19:39.229Z,10.97
2019-04-20T23:22:04.757Z,10.20
2019-04-20T23:24:33.181Z,10.23
2019-04-20T23:27:06.497Z,10.47
2019-04-20T23:29:37.909Z,11.40
2019-04-20T23:32:09.488Z,10.40
2019-04-20T23:34:38.970Z,11.47
2019-04-20T23:37:15.966Z,10.03
2019-04-20T23:39:41.567Z,10.37
2019-04-20T23:42:14.089Z,11.13
2019-04-20T23:45:00.403Z,10.97
2019-04-20T23:47:46.569Z,10.70
2019-04-20T23:50:34.216Z,10.13
2019-04-20T23:53:08.617Z,10.20
2019-04-20T23:55:19.023Z,10.27
2019-04-20T23:57:55.902Z,11.60
